Gunvor Maersk — OYGC2 — position and weather

sailwx.info

Track history (hours):
 
Tides and Currents Weather Stations Pressure Air Temp Water Temp Dewpoint Dewpoint Depression Visibility Wind Speed Wind Dir Waves Ship Positions

Gunvor Maersk

Last reported at 2018-Jan-09 11:48 UTC. Time now 2018-Jan-19 09:47 UTC.
Position N 38°29' W 124°04'.
Warning: this ship's position is 9 days out of date.

Length 367 m; draft 11.7 m.

Type: Ship (hazmat cat A). MMSI: 220413000.

Date/timePositionNaut miles runAvg speedWind from/ knotsBaromVisibWave heightAir tempDewpointWater temp
2018-Jan-09 11:48N 38°29' W 124°04'1 2.9
2018-Jan-09 11:30N 38°29' W 124°03'3 6.7
2018-Jan-09 11:00N 38°28' W 123°60'917.3
2018-Jan-09 10:31N 38°22' W 123°51'916.9
2018-Jan-09 10:00N 38°17' W 123°43'815.7
2018-Jan-09 09:30N 38°12' W 123°35'816.8
2018-Jan-09 09:00N 38°11' W 123°24'510.9
2018-Jan-09 08:30N 38°08' W 123°19'816.8
2018-Jan-09 08:00N 38°01' W 123°12'816.7
2018-Jan-09 07:31N 37°56' W 123°03'917.0
2018-Jan-09 07:00N 37°52' W 122°54'816.9
2018-Jan-09 06:30N 37°48' W 122°45'612.9
2018-Jan-09 06:00N 37°46' W 122°37'816.7
2018-Jan-09 05:30N 37°50' W 122°27'611.3
2018-Jan-09 05:01N 37°48' W 122°21'2 3.5
2018-Jan-09 04:30N 37°48' W 122°19'0 0.0
2018-Jan-09 03:56N 37°48' W 122°19'0 0.0
2018-Jan-09 03:29N 37°48' W 122°19'0 0.0
2018-Jan-09 02:59N 37°48' W 122°19'0 0.0
2018-Jan-09 02:29N 37°48' W 122°19'0 0.0
2018-Jan-09 01:59N 37°48' W 122°19'0 0.0
2018-Jan-09 01:29N 37°48' W 122°19'0 0.0
2018-Jan-09 00:59N 37°48' W 122°19'0 0.0
2018-Jan-09 00:29N 37°48' W 122°19'0 0.0
2018-Jan-08 23:59N 37°48' W 122°19'0 0.0
2018-Jan-08 23:29N 37°48' W 122°19'0 0.0
2018-Jan-08 22:59N 37°48' W 122°19'0 0.0
2018-Jan-08 22:29N 37°48' W 122°19'0 0.0
2018-Jan-08 21:56N 37°48' W 122°19'0 0.0
2018-Jan-08 21:29N 37°48' W 122°19'0 0.0
2018-Jan-08 20:59N 37°48' W 122°19'0 0.0
2018-Jan-08 20:29N 37°48' W 122°19'0 0.0
2018-Jan-08 19:59N 37°48' W 122°19'0 0.0
2018-Jan-08 19:29N 37°48' W 122°19'0 0.0
2018-Jan-08 18:59N 37°48' W 122°19'0 0.0
2018-Jan-08 18:29N 37°48' W 122°19'0 0.0
2018-Jan-08 17:59N 37°48' W 122°19'0 0.0
2018-Jan-08 17:29N 37°48' W 122°19'0 0.0
2018-Jan-08 16:59N 37°48' W 122°19'0 0.0
2018-Jan-08 16:29N 37°48' W 122°19'0 0.0
2018-Jan-08 15:59N 37°48' W 122°19'0 0.0
2018-Jan-08 15:29N 37°48' W 122°19'0 0.0
2018-Jan-08 14:59N 37°48' W 122°19'0 0.0
2018-Jan-08 14:29N 37°48' W 122°19'0 0.0
2018-Jan-08 13:59N 37°48' W 122°19'0 0.0
2018-Jan-08 13:29N 37°48' W 122°19'0 0.0
2018-Jan-08 12:59N 37°48' W 122°19'0 0.0
2018-Jan-08 12:29N 37°48' W 122°19'0 0.0
2018-Jan-08 11:59N 37°48' W 122°19'0 0.0
2018-Jan-08 11:29N 37°48' W 122°19'0 0.0
2018-Jan-08 10:59N 37°48' W 122°19'0 0.0
2018-Jan-08 10:29N 37°48' W 122°19'0 0.0
2018-Jan-08 09:59N 37°48' W 122°19'0 0.0
2018-Jan-08 09:29N 37°48' W 122°19'0 0.0
2018-Jan-08 08:59N 37°48' W 122°19'0 0.0
2018-Jan-08 08:29N 37°48' W 122°19'0 0.0
2018-Jan-08 07:59N 37°48' W 122°19'0 0.0
2018-Jan-08 07:29N 37°48' W 122°19'0 0.0
2018-Jan-08 06:59N 37°48' W 122°19'0 0.0
2018-Jan-08 06:29N 37°48' W 122°19'0 0.0
2018-Jan-08 05:59N 37°48' W 122°19'0 0.0
2018-Jan-08 05:29N 37°48' W 122°19'0 0.0
2018-Jan-08 04:59N 37°48' W 122°19'0 0.0
2018-Jan-08 04:29N 37°48' W 122°19'0 0.0
2018-Jan-08 03:59N 37°48' W 122°19'0 0.0
2018-Jan-08 03:29N 37°48' W 122°19'0 0.0
2018-Jan-08 02:59N 37°48' W 122°19'0 0.0
2018-Jan-08 02:30N 37°48' W 122°19'1 1.2
2018-Jan-08 02:00N 37°48' W 122°18'0 0.7
2018-Jan-08 01:30N 37°48' W 122°17'2 4.1
2018-Jan-08 01:00N 37°48' W 122°20'5 9.7
2018-Jan-08 00:30N 37°49' W 122°26'612.8
2018-Jan-08 00:00N 37°47' W 122°34'612.9
2018-Jan-07 23:31N 37°44' W 122°41'4 8.8
2018-Jan-07 23:00N 37°40' W 122°40'5 9.1
2018-Jan-07 22:30N 37°35' W 122°40'5 9.2
2018-Jan-07 22:00N 37°31' W 122°40'4 9.0
2018-Jan-07 21:30N 37°26' W 122°40'5 9.0
2018-Jan-07 21:00N 37°22' W 122°40'5 9.0
2018-Jan-07 20:30N 37°17' W 122°40'3 6.4
2018-Jan-07 20:00N 37°14' W 122°40'3 6.8
2018-Jan-07 19:30N 37°11' W 122°40'4 8.6
2018-Jan-07 19:00N 37°07' W 122°38'4 8.7
2018-Jan-07 18:30N 37°03' W 122°36'4 8.8
2018-Jan-07 18:00N 36°59' W 122°33'4 8.9
2018-Jan-07 17:30N 36°55' W 122°31'5 9.2
2018-Jan-07 17:00N 36°50' W 122°29'5 9.1
2018-Jan-07 16:30N 36°46' W 122°27'611.0
2018-Jan-07 16:00N 36°41' W 122°25'713.0
2018-Jan-07 15:30N 36°35' W 122°21'612.7
2018-Jan-07 15:00N 36°29' W 122°18'612.8
2018-Jan-07 14:30N 36°23' W 122°15'612.7
2018-Jan-07 14:00N 36°17' W 122°12'612.5
2018-Jan-07 13:30N 36°12' W 122°08'612.5
2018-Jan-07 13:00N 36°07' W 122°04'612.4
2018-Jan-07 12:30N 36°01' W 122°00'612.4
2018-Jan-07 12:00N 35°56' W 121°56'612.2
2018-Jan-07 11:30N 35°51' W 121°53'611.8
2018-Jan-07 11:00N 35°46' W 121°49'611.9
2018-Jan-07 10:30N 35°40' W 121°45'612.0
2018-Jan-07 10:00N 35°35' W 121°41'612.3
2018-Jan-07 09:30N 35°30' W 121°38'612.2
2018-Jan-07 09:00N 35°25' W 121°34'612.0
2018-Jan-07 08:30N 35°20' W 121°30'611.8
2018-Jan-07 08:00N 35°14' W 121°26'612.0
2018-Jan-07 07:30N 35°09' W 121°23'612.0
2018-Jan-07 07:00N 35°04' W 121°19'612.4
2018-Jan-07 06:30N 34°59' W 121°15'612.2
2018-Jan-07 06:00N 34°54' W 121°11'612.3
2018-Jan-07 05:30N 34°48' W 121°08'612.2
2018-Jan-07 05:00N 34°43' W 121°04'611.9
2018-Jan-07 04:30N 34°38' W 121°00'611.7
2018-Jan-07 04:00N 34°33' W 120°57'611.6
2018-Jan-07 03:30N 34°28' W 120°53'611.1
2018-Jan-07 02:56N 34°25' W 120°46'612.2
2018-Jan-07 02:29N 34°23' W 120°40'612.0
2018-Jan-07 01:57N 34°22' W 120°33'511.7
2018-Jan-07 01:30N 34°20' W 120°26'1212.1
2018-Jan-07 00:29N 34°17' W 120°12'612.0
2018-Jan-07 00:00N 34°16' W 120°05'611.6
2018-Jan-06 23:28N 34°14' W 119°58'4 8.6
2018-Jan-06 23:00N 34°13' W 119°53'4 8.6
2018-Jan-06 22:28N 34°12' W 119°48'4 8.3
2018-Jan-06 21:59N 34°11' W 119°43'4 8.0
2018-Jan-06 21:29N 34°10' W 119°39'4 8.6
2018-Jan-06 20:59N 34°08' W 119°34'4 8.9
2018-Jan-06 20:30N 34°07' W 119°29'5 9.4
2018-Jan-06 20:00N 34°06' W 119°23'5 9.7
2018-Jan-06 19:30N 34°05' W 119°17'5 9.1
2018-Jan-06 18:59N 34°03' W 119°12'5 9.1
2018-Jan-06 18:29N 34°01' W 119°08'611.1
2018-Jan-06 17:59N 33°58' W 119°02'611.4
2018-Jan-06 17:27N 33°55' W 118°55'511.4
2018-Jan-06 17:00N 33°52' W 118°50'611.4
2018-Jan-06 16:27N 33°49' W 118°43'511.4
2018-Jan-06 16:00N 33°46' W 118°38'611.2
2018-Jan-06 15:30N 33°44' W 118°32'611.4
2018-Jan-06 15:00N 33°41' W 118°26'611.5
2018-Jan-06 14:30N 33°38' W 118°20'4 8.2
2018-Jan-06 14:00N 33°38' W 118°15'5 5.8
2018-Jan-06 13:07N 33°42' W 118°11'1 7.5
2018-Jan-06 13:00N 33°43' W 118°11'3 5.6
2018-Jan-06 12:26N 33°45' W 118°14'0 0.9
2018-Jan-06 12:00N 33°45' W 118°14'0 0.0
2018-Jan-06 11:29N 33°45' W 118°14'0 0.0
2018-Jan-06 10:56N 33°45' W 118°14'0 0.0
2018-Jan-06 09:38N 33°45' W 118°14'0 0.0
2018-Jan-04 14:14N 33°45' W 118°14'0 0.0
2018-Jan-04 13:56N 33°45' W 118°14'0 0.0
2018-Jan-04 13:26N 33°45' W 118°14'0 0.0
2018-Jan-04 12:50N 33°45' W 118°14'0 0.0
2018-Jan-04 11:26N 33°45' W 118°14'0 0.0
2018-Jan-04 10:56N 33°45' W 118°14'0 0.0
2018-Jan-04 10:26N 33°45' W 118°14'0 0.0
2018-Jan-04 09:56N 33°45' W 118°14'0 0.0
2018-Jan-04 09:26N 33°45' W 118°14'0 0.0
2018-Jan-04 08:44N 33°45' W 118°14'0 0.0
2018-Jan-04 07:08N 33°45' W 118°14'0 0.0
2018-Jan-04 06:56N 33°45' W 118°14'0 0.0
2018-Jan-04 06:26N 33°45' W 118°14'0 0.0
2018-Jan-04 05:56N 33°45' W 118°14'0 0.0
2018-Jan-04 00:05N 33°45' W 118°14'0 0.0
2018-Jan-03 23:56N 33°45' W 118°14'0 0.0
2018-Jan-03 23:26N 33°45' W 118°14'0 0.0
2018-Jan-03 22:56N 33°45' W 118°14'0 0.0
2018-Jan-03 22:26N 33°45' W 118°14'0 0.0
2018-Jan-03 17:38N 33°45' W 118°14'0 0.0
2018-Jan-03 17:20N 33°45' W 118°14'0 0.0
2018-Jan-03 16:56N 33°45' W 118°14'0 0.0
2018-Jan-03 11:08N 33°45' W 118°14'0 0.0
2018-Jan-03 09:02N 33°45' W 118°14'0 0.1
2018-Jan-03 08:56N 33°45' W 118°14'0 0.0
2018-Jan-03 04:50N 33°45' W 118°14'0 0.0
2018-Jan-03 03:26N 33°45' W 118°14'0 0.0
2018-Jan-03 02:44N 33°45' W 118°14'0 0.0
2018-Jan-03 02:26N 33°45' W 118°14'0 0.0
2018-Jan-03 01:50N 33°45' W 118°14'0 0.0
2018-Jan-03 01:26N 33°45' W 118°14'0 0.0
2018-Jan-03 00:56N 33°45' W 118°14'0 0.0
2018-Jan-02 23:02N 33°45' W 118°14'0 0.0
2018-Jan-02 22:38N 33°45' W 118°14'0 0.0
2018-Jan-02 22:23N 33°45' W 118°14'0 0.0
2018-Jan-02 21:44N 33°45' W 118°14'0 0.0
2018-Jan-02 21:17N 33°45' W 118°14'0 0.0
2018-Jan-02 20:44N 33°45' W 118°14'0 0.0
2018-Jan-02 20:26N 33°45' W 118°14'0 0.0
2018-Jan-02 19:56N 33°45' W 118°14'0 0.0
2018-Jan-02 19:26N 33°45' W 118°14'0 0.0
2018-Jan-02 12:14N 33°45' W 118°14'0 0.2
2018-Jan-02 11:56N 33°45' W 118°14'2 3.7
2018-Jan-02 11:31N 33°44' W 118°13'4 7.7
2018-Jan-02 11:00N 33°41' W 118°11'3 6.4
2018-Jan-02 10:31N 33°38' W 118°12'4 7.5
2018-Jan-02 09:59N 33°36' W 118°17'4 8.3
2018-Jan-02 09:31N 33°37' W 118°21'10 9.6
2018-Jan-02 08:30N 33°41' W 118°31'5 9.3
2018-Jan-02 08:00N 33°44' W 118°36'5 9.4
2018-Jan-02 07:30N 33°46' W 118°41'5 9.4
2018-Jan-02 07:01N 33°48' W 118°46'5 9.3
2018-Jan-02 06:31N 33°50' W 118°51'5 9.1
2018-Jan-02 06:00N 33°53' W 118°56'5 9.5
2018-Jan-02 05:30N 33°55' W 119°01'9 9.4
2018-Jan-02 04:31N 33°60' W 119°11'5 9.8
2018-Jan-02 04:01N 34°02' W 119°16'5 9.5
2018-Jan-02 03:31N 34°04' W 119°21'5 9.4
2018-Jan-02 03:00N 34°05' W 119°27'5 9.4
2018-Jan-02 02:30N 34°06' W 119°32'5 9.4
2018-Jan-02 02:00N 34°07' W 119°38'5 9.5
2018-Jan-02 01:31N 34°09' W 119°43'5 9.4
2018-Jan-02 01:01N 34°10' W 119°49'5 9.5
2018-Jan-02 00:27N 34°11' W 119°55'5 9.6
2018-Jan-01 23:53N 34°13' W 120°01'411.5
2018-Jan-01 23:30N 34°14' W 120°06'815.4
2018-Jan-01 23:00N 34°16' W 120°15'815.2
2018-Jan-01 22:30N 34°18' W 120°24'815.1
2018-Jan-01 22:00N 34°20' W 120°33'815.2
2018-Jan-01 21:30N 34°22' W 120°42'815.8
2018-Jan-01 21:00N 34°24' W 120°51'815.9
2018-Jan-01 20:30N 34°24' W 121°00'816.4
2018-Jan-01 20:00N 34°24' W 121°10'917.3
2018-Jan-01 19:30N 34°24' W 121°21'917.3
2018-Jan-01 19:00N 34°24' W 121°31'917.3
2018-Jan-01 18:30N 34°25' W 121°42'917.5
2018-Jan-01 17:59N 34°25' W 121°53'917.4
2018-Jan-01 17:29N 34°25' W 122°03'  
Track history (hours):
 
Tides and Currents Weather Stations Pressure Air Temp Water Temp Dewpoint Dewpoint Depression Visibility Wind Speed Wind Dir Waves Ship Positions

Gunvor Maersk

Last reported at 2018-Jan-09 11:48 UTC. Time now 2018-Jan-19 09:47 UTC.
Position N 38°29' W 124°04'.
Warning: this ship's position is 9 days out of date.

Length 367 m; draft 11.7 m.

Type: Ship (hazmat cat A). MMSI: 220413000.

Date/timePositionNaut miles runAvg speedWind from/ knotsBaromVisibWave heightAir tempDewpointWater temp
2018-Jan-09 11:48N 38°29' W 124°04'1 2.9
2018-Jan-09 11:30N 38°29' W 124°03'3 6.7
2018-Jan-09 11:00N 38°28' W 123°60'917.3
2018-Jan-09 10:31N 38°22' W 123°51'916.9
2018-Jan-09 10:00N 38°17' W 123°43'815.7
2018-Jan-09 09:30N 38°12' W 123°35'816.8
2018-Jan-09 09:00N 38°11' W 123°24'510.9
2018-Jan-09 08:30N 38°08' W 123°19'816.8
2018-Jan-09 08:00N 38°01' W 123°12'816.7
2018-Jan-09 07:31N 37°56' W 123°03'917.0
2018-Jan-09 07:00N 37°52' W 122°54'816.9
2018-Jan-09 06:30N 37°48' W 122°45'612.9
2018-Jan-09 06:00N 37°46' W 122°37'816.7
2018-Jan-09 05:30N 37°50' W 122°27'611.3
2018-Jan-09 05:01N 37°48' W 122°21'2 3.5
2018-Jan-09 04:30N 37°48' W 122°19'0 0.0
2018-Jan-09 03:56N 37°48' W 122°19'0 0.0
2018-Jan-09 03:29N 37°48' W 122°19'0 0.0
2018-Jan-09 02:59N 37°48' W 122°19'0 0.0
2018-Jan-09 02:29N 37°48' W 122°19'0 0.0
2018-Jan-09 01:59N 37°48' W 122°19'0 0.0
2018-Jan-09 01:29N 37°48' W 122°19'0 0.0
2018-Jan-09 00:59N 37°48' W 122°19'0 0.0
2018-Jan-09 00:29N 37°48' W 122°19'0 0.0
2018-Jan-08 23:59N 37°48' W 122°19'0 0.0
2018-Jan-08 23:29N 37°48' W 122°19'0 0.0
2018-Jan-08 22:59N 37°48' W 122°19'0 0.0
2018-Jan-08 22:29N 37°48' W 122°19'0 0.0
2018-Jan-08 21:56N 37°48' W 122°19'0 0.0
2018-Jan-08 21:29N 37°48' W 122°19'0 0.0
2018-Jan-08 20:59N 37°48' W 122°19'0 0.0
2018-Jan-08 20:29N 37°48' W 122°19'0 0.0
2018-Jan-08 19:59N 37°48' W 122°19'0 0.0
2018-Jan-08 19:29N 37°48' W 122°19'0 0.0
2018-Jan-08 18:59N 37°48' W 122°19'0 0.0
2018-Jan-08 18:29N 37°48' W 122°19'0 0.0
2018-Jan-08 17:59N 37°48' W 122°19'0 0.0
2018-Jan-08 17:29N 37°48' W 122°19'0 0.0
2018-Jan-08 16:59N 37°48' W 122°19'0 0.0
2018-Jan-08 16:29N 37°48' W 122°19'0 0.0
2018-Jan-08 15:59N 37°48' W 122°19'0 0.0
2018-Jan-08 15:29N 37°48' W 122°19'0 0.0
2018-Jan-08 14:59N 37°48' W 122°19'0 0.0
2018-Jan-08 14:29N 37°48' W 122°19'0 0.0
2018-Jan-08 13:59N 37°48' W 122°19'0 0.0
2018-Jan-08 13:29N 37°48' W 122°19'0 0.0
2018-Jan-08 12:59N 37°48' W 122°19'0 0.0
2018-Jan-08 12:29N 37°48' W 122°19'0 0.0
2018-Jan-08 11:59N 37°48' W 122°19'0 0.0
2018-Jan-08 11:29N 37°48' W 122°19'0 0.0
2018-Jan-08 10:59N 37°48' W 122°19'0 0.0
2018-Jan-08 10:29N 37°48' W 122°19'0 0.0
2018-Jan-08 09:59N 37°48' W 122°19'0 0.0
2018-Jan-08 09:29N 37°48' W 122°19'0 0.0
2018-Jan-08 08:59N 37°48' W 122°19'0 0.0
2018-Jan-08 08:29N 37°48' W 122°19'0 0.0
2018-Jan-08 07:59N 37°48' W 122°19'0 0.0
2018-Jan-08 07:29N 37°48' W 122°19'0 0.0
2018-Jan-08 06:59N 37°48' W 122°19'0 0.0
2018-Jan-08 06:29N 37°48' W 122°19'0 0.0
2018-Jan-08 05:59N 37°48' W 122°19'0 0.0
2018-Jan-08 05:29N 37°48' W 122°19'0 0.0
2018-Jan-08 04:59N 37°48' W 122°19'0 0.0
2018-Jan-08 04:29N 37°48' W 122°19'0 0.0
2018-Jan-08 03:59N 37°48' W 122°19'0 0.0
2018-Jan-08 03:29N 37°48' W 122°19'0 0.0
2018-Jan-08 02:59N 37°48' W 122°19'0 0.0
2018-Jan-08 02:30N 37°48' W 122°19'1 1.2
2018-Jan-08 02:00N 37°48' W 122°18'0 0.7
2018-Jan-08 01:30N 37°48' W 122°17'2 4.1
2018-Jan-08 01:00N 37°48' W 122°20'5 9.7
2018-Jan-08 00:30N 37°49' W 122°26'612.8
2018-Jan-08 00:00N 37°47' W 122°34'612.9
2018-Jan-07 23:31N 37°44' W 122°41'4 8.8
2018-Jan-07 23:00N 37°40' W 122°40'5 9.1
2018-Jan-07 22:30N 37°35' W 122°40'5 9.2
2018-Jan-07 22:00N 37°31' W 122°40'4 9.0
2018-Jan-07 21:30N 37°26' W 122°40'5 9.0
2018-Jan-07 21:00N 37°22' W 122°40'5 9.0
2018-Jan-07 20:30N 37°17' W 122°40'3 6.4
2018-Jan-07 20:00N 37°14' W 122°40'3 6.8
2018-Jan-07 19:30N 37°11' W 122°40'4 8.6
2018-Jan-07 19:00N 37°07' W 122°38'4 8.7
2018-Jan-07 18:30N 37°03' W 122°36'4 8.8
2018-Jan-07 18:00N 36°59' W 122°33'4 8.9
2018-Jan-07 17:30N 36°55' W 122°31'5 9.2
2018-Jan-07 17:00N 36°50' W 122°29'5 9.1
2018-Jan-07 16:30N 36°46' W 122°27'611.0
2018-Jan-07 16:00N 36°41' W 122°25'713.0
2018-Jan-07 15:30N 36°35' W 122°21'612.7
2018-Jan-07 15:00N 36°29' W 122°18'612.8
2018-Jan-07 14:30N 36°23' W 122°15'612.7
2018-Jan-07 14:00N 36°17' W 122°12'612.5
2018-Jan-07 13:30N 36°12' W 122°08'612.5
2018-Jan-07 13:00N 36°07' W 122°04'612.4
2018-Jan-07 12:30N 36°01' W 122°00'612.4
2018-Jan-07 12:00N 35°56' W 121°56'612.2
2018-Jan-07 11:30N 35°51' W 121°53'611.8
2018-Jan-07 11:00N 35°46' W 121°49'611.9
2018-Jan-07 10:30N 35°40' W 121°45'612.0
2018-Jan-07 10:00N 35°35' W 121°41'612.3
2018-Jan-07 09:30N 35°30' W 121°38'612.2
2018-Jan-07 09:00N 35°25' W 121°34'612.0
2018-Jan-07 08:30N 35°20' W 121°30'611.8
2018-Jan-07 08:00N 35°14' W 121°26'612.0
2018-Jan-07 07:30N 35°09' W 121°23'612.0
2018-Jan-07 07:00N 35°04' W 121°19'612.4
2018-Jan-07 06:30N 34°59' W 121°15'612.2
2018-Jan-07 06:00N 34°54' W 121°11'612.3
2018-Jan-07 05:30N 34°48' W 121°08'612.2
2018-Jan-07 05:00N 34°43' W 121°04'611.9
2018-Jan-07 04:30N 34°38' W 121°00'611.7
2018-Jan-07 04:00N 34°33' W 120°57'611.6
2018-Jan-07 03:30N 34°28' W 120°53'611.1
2018-Jan-07 02:56N 34°25' W 120°46'612.2
2018-Jan-07 02:29N 34°23' W 120°40'612.0
2018-Jan-07 01:57N 34°22' W 120°33'511.7
2018-Jan-07 01:30N 34°20' W 120°26'1212.1
2018-Jan-07 00:29N 34°17' W 120°12'612.0
2018-Jan-07 00:00N 34°16' W 120°05'611.6
2018-Jan-06 23:28N 34°14' W 119°58'4 8.6
2018-Jan-06 23:00N 34°13' W 119°53'4 8.6
2018-Jan-06 22:28N 34°12' W 119°48'4 8.3
2018-Jan-06 21:59N 34°11' W 119°43'4 8.0
2018-Jan-06 21:29N 34°10' W 119°39'4 8.6
2018-Jan-06 20:59N 34°08' W 119°34'4 8.9
2018-Jan-06 20:30N 34°07' W 119°29'5 9.4
2018-Jan-06 20:00N 34°06' W 119°23'5 9.7
2018-Jan-06 19:30N 34°05' W 119°17'5 9.1
2018-Jan-06 18:59N 34°03' W 119°12'5 9.1
2018-Jan-06 18:29N 34°01' W 119°08'611.1
2018-Jan-06 17:59N 33°58' W 119°02'611.4
2018-Jan-06 17:27N 33°55' W 118°55'511.4
2018-Jan-06 17:00N 33°52' W 118°50'611.4
2018-Jan-06 16:27N 33°49' W 118°43'511.4
2018-Jan-06 16:00N 33°46' W 118°38'611.2
2018-Jan-06 15:30N 33°44' W 118°32'611.4
2018-Jan-06 15:00N 33°41' W 118°26'611.5
2018-Jan-06 14:30N 33°38' W 118°20'4 8.2
2018-Jan-06 14:00N 33°38' W 118°15'5 5.8
2018-Jan-06 13:07N 33°42' W 118°11'1 7.5
2018-Jan-06 13:00N 33°43' W 118°11'3 5.6
2018-Jan-06 12:26N 33°45' W 118°14'0 0.9
2018-Jan-06 12:00N 33°45' W 118°14'0 0.0
2018-Jan-06 11:29N 33°45' W 118°14'0 0.0
2018-Jan-06 10:56N 33°45' W 118°14'0 0.0
2018-Jan-06 09:38N 33°45' W 118°14'0 0.0
2018-Jan-04 14:14N 33°45' W 118°14'0 0.0
2018-Jan-04 13:56N 33°45' W 118°14'0 0.0
2018-Jan-04 13:26N 33°45' W 118°14'0 0.0
2018-Jan-04 12:50N 33°45' W 118°14'0 0.0
2018-Jan-04 11:26N 33°45' W 118°14'0 0.0
2018-Jan-04 10:56N 33°45' W 118°14'0 0.0
2018-Jan-04 10:26N 33°45' W 118°14'0 0.0
2018-Jan-04 09:56N 33°45' W 118°14'0 0.0
2018-Jan-04 09:26N 33°45' W 118°14'0 0.0
2018-Jan-04 08:44N 33°45' W 118°14'0 0.0
2018-Jan-04 07:08N 33°45' W 118°14'0 0.0
2018-Jan-04 06:56N 33°45' W 118°14'0 0.0
2018-Jan-04 06:26N 33°45' W 118°14'0 0.0
2018-Jan-04 05:56N 33°45' W 118°14'0 0.0
2018-Jan-04 00:05N 33°45' W 118°14'0 0.0
2018-Jan-03 23:56N 33°45' W 118°14'0 0.0
2018-Jan-03 23:26N 33°45' W 118°14'0 0.0
2018-Jan-03 22:56N 33°45' W 118°14'0 0.0
2018-Jan-03 22:26N 33°45' W 118°14'0 0.0
2018-Jan-03 17:38N 33°45' W 118°14'0 0.0
2018-Jan-03 17:20N 33°45' W 118°14'0 0.0
2018-Jan-03 16:56N 33°45' W 118°14'0 0.0
2018-Jan-03 11:08N 33°45' W 118°14'0 0.0
2018-Jan-03 09:02N 33°45' W 118°14'0 0.1
2018-Jan-03 08:56N 33°45' W 118°14'0 0.0
2018-Jan-03 04:50N 33°45' W 118°14'0 0.0
2018-Jan-03 03:26N 33°45' W 118°14'0 0.0
2018-Jan-03 02:44N 33°45' W 118°14'0 0.0
2018-Jan-03 02:26N 33°45' W 118°14'0 0.0
2018-Jan-03 01:50N 33°45' W 118°14'0 0.0
2018-Jan-03 01:26N 33°45' W 118°14'0 0.0
2018-Jan-03 00:56N 33°45' W 118°14'0 0.0
2018-Jan-02 23:02N 33°45' W 118°14'0 0.0
2018-Jan-02 22:38N 33°45' W 118°14'0 0.0
2018-Jan-02 22:23N 33°45' W 118°14'0 0.0
2018-Jan-02 21:44N 33°45' W 118°14'0 0.0
2018-Jan-02 21:17N 33°45' W 118°14'0 0.0
2018-Jan-02 20:44N 33°45' W 118°14'0 0.0
2018-Jan-02 20:26N 33°45' W 118°14'0 0.0
2018-Jan-02 19:56N 33°45' W 118°14'0 0.0
2018-Jan-02 19:26N 33°45' W 118°14'0 0.0
2018-Jan-02 12:14N 33°45' W 118°14'0 0.2
2018-Jan-02 11:56N 33°45' W 118°14'2 3.7
2018-Jan-02 11:31N 33°44' W 118°13'4 7.7
2018-Jan-02 11:00N 33°41' W 118°11'3 6.4
2018-Jan-02 10:31N 33°38' W 118°12'4 7.5
2018-Jan-02 09:59N 33°36' W 118°17'4 8.3
2018-Jan-02 09:31N 33°37' W 118°21'10 9.6
2018-Jan-02 08:30N 33°41' W 118°31'5 9.3
2018-Jan-02 08:00N 33°44' W 118°36'5 9.4
2018-Jan-02 07:30N 33°46' W 118°41'5 9.4
2018-Jan-02 07:01N 33°48' W 118°46'5 9.3
2018-Jan-02 06:31N 33°50' W 118°51'5 9.1
2018-Jan-02 06:00N 33°53' W 118°56'5 9.5
2018-Jan-02 05:30N 33°55' W 119°01'9 9.4
2018-Jan-02 04:31N 33°60' W 119°11'5 9.8
2018-Jan-02 04:01N 34°02' W 119°16'5 9.5
2018-Jan-02 03:31N 34°04' W 119°21'5 9.4
2018-Jan-02 03:00N 34°05' W 119°27'5 9.4
2018-Jan-02 02:30N 34°06' W 119°32'5 9.4
2018-Jan-02 02:00N 34°07' W 119°38'5 9.5
2018-Jan-02 01:31N 34°09' W 119°43'5 9.4
2018-Jan-02 01:01N 34°10' W 119°49'5 9.5
2018-Jan-02 00:27N 34°11' W 119°55'5 9.6
2018-Jan-01 23:53N 34°13' W 120°01'411.5
2018-Jan-01 23:30N 34°14' W 120°06'815.4
2018-Jan-01 23:00N 34°16' W 120°15'815.2
2018-Jan-01 22:30N 34°18' W 120°24'815.1
2018-Jan-01 22:00N 34°20' W 120°33'815.2
2018-Jan-01 21:30N 34°22' W 120°42'815.8
2018-Jan-01 21:00N 34°24' W 120°51'815.9
2018-Jan-01 20:30N 34°24' W 121°00'816.4
2018-Jan-01 20:00N 34°24' W 121°10'917.3
2018-Jan-01 19:30N 34°24' W 121°21'917.3
2018-Jan-01 19:00N 34°24' W 121°31'917.3
2018-Jan-01 18:30N 34°25' W 121°42'917.5
2018-Jan-01 17:59N 34°25' W 121°53'917.4
2018-Jan-01 17:29N 34°25' W 122°03'  

Dump ship's entire track history